sensor_id;sensor_type;location;lat;lon;timestamp;pressure;altitude;pressure_sealevel;temperature;humidity
75668;BME280;64266;48.798;44.756;2022-10-15T00:01:15;102239.28;;;9.09;68.83
75668;BME280;64266;48.798;44.756;2022-10-15T00:03:43;102245.22;;;9.11;68.58
75668;BME280;64266;48.798;44.756;2022-10-15T00:06:12;102188.47;;;8.75;67.58
75668;BME280;64266;48.798;44.756;2022-10-15T00:08:38;102226.16;;;8.85;68.77
75668;BME280;64266;48.798;44.756;2022-10-15T00:11:08;102243.78;;;9.00;68.14
75668;BME280;64266;48.798;44.756;2022-10-15T00:13:35;102214.59;;;8.78;69.53
75668;BME280;64266;48.798;44.756;2022-10-15T00:16:02;102229.28;;;8.80;69.87
75668;BME280;64266;48.798;44.756;2022-10-15T00:18:28;102241.38;;;8.83;69.04
75668;BME280;64266;48.798;44.756;2022-10-15T00:20:54;102182.94;;;8.45;69.10
75668;BME280;64266;48.798;44.756;2022-10-15T00:23:20;102120.56;;;7.96;69.09
75668;BME280;64266;48.798;44.756;2022-10-15T00:25:46;102242.38;;;8.74;68.97
75668;BME280;64266;48.798;44.756;2022-10-15T00:28:12;102247.47;;;8.83;69.44
75668;BME280;64266;48.798;44.756;2022-10-15T00:30:38;102156.03;;;8.17;69.71
75668;BME280;64266;48.798;44.756;2022-10-15T00:33:03;102236.25;;;8.73;70.17
75668;BME280;64266;48.798;44.756;2022-10-15T00:35:29;102160.66;;;8.24;68.92
75668;BME280;64266;48.798;44.756;2022-10-15T00:37:55;102231.81;;;8.65;69.43
75668;BME280;64266;48.798;44.756;2022-10-15T00:40:21;102200.63;;;8.45;69.49
75668;BME280;64266;48.798;44.756;2022-10-15T00:42:47;102235.31;;;8.58;70.10
75668;BME280;64266;48.798;44.756;2022-10-15T00:45:15;102255.72;;;8.80;70.50
75668;BME280;64266;48.798;44.756;2022-10-15T00:47:43;102224.06;;;8.64;69.96
75668;BME280;64266;48.798;44.756;2022-10-15T00:50:26;102240.53;;;8.74;69.64
75668;BME280;64266;48.798;44.756;2022-10-15T00:53:05;102252.09;;;8.81;69.63
75668;BME280;64266;48.798;44.756;2022-10-15T00:55:38;102265.34;;;8.81;69.44
75668;BME280;64266;48.798;44.756;2022-10-15T00:58:11;102248.31;;;8.67;69.30
75668;BME280;64266;48.798;44.756;2022-10-15T01:00:38;102238.41;;;8.61;69.64
75668;BME280;64266;48.798;44.756;2022-10-15T01:03:05;102265.84;;;8.68;69.25
75668;BME280;64266;48.798;44.756;2022-10-15T01:05:31;102204.75;;;8.23;69.85
75668;BME280;64266;48.798;44.756;2022-10-15T01:07:58;102266.69;;;8.69;69.37
75668;BME280;64266;48.798;44.756;2022-10-15T01:10:35;102266.69;;;8.69;68.91
75668;BME280;64266;48.798;44.756;2022-10-15T01:13:52;102268.16;;;8.71;69.77
75668;BME280;64266;48.798;44.756;2022-10-15T01:16:31;102143.16;;;7.82;69.18
75668;BME280;64266;48.798;44.756;2022-10-15T01:19:06;102270.50;;;8.66;69.62
75668;BME280;64266;48.798;44.756;2022-10-15T01:21:42;102266.38;;;8.64;69.36
75668;BME280;64266;48.798;44.756;2022-10-15T01:27:40;102278.09;;;8.61;69.75
75668;BME280;64266;48.798;44.756;2022-10-15T01:36:15;102272.50;;;8.48;69.58
75668;BME280;64266;48.798;44.756;2022-10-15T01:39:21;102288.34;;;8.56;69.74
75668;BME280;64266;48.798;44.756;2022-10-15T01:41:59;102299.09;;;8.55;69.24
75668;BME280;64266;48.798;44.756;2022-10-15T01:44:33;102217.81;;;8.08;69.82
75668;BME280;64266;48.798;44.756;2022-10-15T01:47:39;102303.03;;;8.59;69.87
75668;BME280;64266;48.798;44.756;2022-10-15T01:50:08;102274.31;;;8.48;69.98
75668;BME280;64266;48.798;44.756;2022-10-15T01:52:37;102198.78;;;7.97;70.21
75668;BME280;64266;48.798;44.756;2022-10-15T01:55:09;102301.06;;;8.61;69.09
75668;BME280;64266;48.798;44.756;2022-10-15T01:57:38;102298.91;;;8.64;69.84
75668;BME280;64266;48.798;44.756;2022-10-15T02:00:06;102302.22;;;8.58;69.75
75668;BME280;64266;48.798;44.756;2022-10-15T02:02:38;102274.63;;;8.37;70.20
75668;BME280;64266;48.798;44.756;2022-10-15T02:05:11;102306.34;;;8.53;69.85
75668;BME280;64266;48.798;44.756;2022-10-15T02:10:34;102284.03;;;8.31;70.31
75668;BME280;64266;48.798;44.756;2022-10-15T02:13:13;102324.84;;;8.53;70.51
75668;BME280;64266;48.798;44.756;2022-10-15T02:16:33;102309.47;;;8.40;70.35
75668;BME280;64266;48.798;44.756;2022-10-15T02:19:06;102315.94;;;8.54;71.29
75668;BME280;64266;48.798;44.756;2022-10-15T02:21:47;102329.19;;;8.46;70.36
75668;BME280;64266;48.798;44.756;2022-10-15T02:24:24;102296.44;;;8.31;70.58
75668;BME280;64266;48.798;44.756;2022-10-15T02:26:55;102321.41;;;8.44;70.72
75668;BME280;64266;48.798;44.756;2022-10-15T02:29:25;102329.66;;;8.41;71.11
75668;BME280;64266;48.798;44.756;2022-10-15T02:31:56;102215.63;;;7.72;70.93
75668;BME280;64266;48.798;44.756;2022-10-15T02:34:26;102284.16;;;8.22;71.87
75668;BME280;64266;48.798;44.756;2022-10-15T02:36:57;102326.66;;;8.52;71.33
75668;BME280;64266;48.798;44.756;2022-10-15T02:39:26;102296.25;;;8.24;70.51
75668;BME280;64266;48.798;44.756;2022-10-15T02:41:53;102311.63;;;8.29;70.28
75668;BME280;64266;48.798;44.756;2022-10-15T02:44:19;102230.63;;;7.79;70.93
75668;BME280;64266;48.798;44.756;2022-10-15T02:46:45;102333.97;;;8.42;70.84
75668;BME280;64266;48.798;44.756;2022-10-15T02:49:13;102338.22;;;8.43;71.34
75668;BME280;64266;48.798;44.756;2022-10-15T02:51:40;102249.47;;;7.84;70.53
75668;BME280;64266;48.798;44.756;2022-10-15T02:54:06;102307.31;;;8.19;70.99
75668;BME280;64266;48.798;44.756;2022-10-15T02:56:33;102269.31;;;7.96;70.39
75668;BME280;64266;48.798;44.756;2022-10-15T02:58:59;102346.69;;;8.39;71.01
75668;BME280;64266;48.798;44.756;2022-10-15T03:01:25;102362.34;;;8.40;71.42
75668;BME280;64266;48.798;44.756;2022-10-15T03:03:52;102280.03;;;8.03;71.25
75668;BME280;64266;48.798;44.756;2022-10-15T03:06:18;102322.50;;;8.26;70.48
75668;BME280;64266;48.798;44.756;2022-10-15T03:08:46;102329.44;;;8.27;70.37
75668;BME280;64266;48.798;44.756;2022-10-15T03:11:12;102330.28;;;8.27;71.15
75668;BME280;64266;48.798;44.756;2022-10-15T03:13:38;102325.81;;;8.19;70.57
75668;BME280;64266;48.798;44.756;2022-10-15T03:16:06;102338.31;;;8.09;69.31
75668;BME280;64266;48.798;44.756;2022-10-15T03:18:33;102305.28;;;7.89;70.39
75668;BME280;64266;48.798;44.756;2022-10-15T03:20:59;102371.56;;;8.20;70.37
75668;BME280;64266;48.798;44.756;2022-10-15T03:23:25;102328.88;;;7.91;70.90
75668;BME280;64266;48.798;44.756;2022-10-15T03:26:01;102332.84;;;7.87;70.97
75668;BME280;64266;48.798;44.756;2022-10-15T03:28:27;102324.41;;;7.83;71.49
75668;BME280;64266;48.798;44.756;2022-10-15T03:30:53;102384.59;;;8.13;70.37
75668;BME280;64266;48.798;44.756;2022-10-15T03:33:21;102378.97;;;8.08;70.68
75668;BME280;64266;48.798;44.756;2022-10-15T03:35:46;102285.19;;;7.54;70.47
75668;BME280;64266;48.798;44.756;2022-10-15T03:38:13;102383.59;;;8.14;70.78
75668;BME280;64266;48.798;44.756;2022-10-15T03:40:39;102336.47;;;7.86;70.44
75668;BME280;64266;48.798;44.756;2022-10-15T03:43:18;102371.38;;;8.13;71.90
75668;BME280;64266;48.798;44.756;2022-10-15T03:45:45;102351.69;;;8.00;70.98
75668;BME280;64266;48.798;44.756;2022-10-15T03:48:18;102376.34;;;8.16;70.23
75668;BME280;64266;48.798;44.756;2022-10-15T03:50:45;102394.41;;;8.29;70.75
75668;BME280;64266;48.798;44.756;2022-10-15T03:53:14;102357.81;;;8.08;69.93
75668;BME280;64266;48.798;44.756;2022-10-15T03:55:40;102404.00;;;8.38;69.12
75668;BME280;64266;48.798;44.756;2022-10-15T03:58:07;102402.84;;;8.41;69.27
75668;BME280;64266;48.798;44.756;2022-10-15T04:00:34;102291.03;;;7.74;69.33
75668;BME280;64266;48.798;44.756;2022-10-15T04:03:02;102352.06;;;8.21;69.07
75668;BME280;64266;48.798;44.756;2022-10-15T04:05:29;102406.66;;;8.54;68.48
75668;BME280;64266;48.798;44.756;2022-10-15T04:08:01;102393.09;;;8.49;67.56
75668;BME280;64266;48.798;44.756;2022-10-15T04:10:30;102415.44;;;8.63;67.12
75668;BME280;64266;48.798;44.756;2022-10-15T04:12:56;102389.66;;;8.49;66.66
75668;BME280;64266;48.798;44.756;2022-10-15T04:15:22;102397.25;;;8.52;66.68
75668;BME280;64266;48.798;44.756;2022-10-15T04:17:54;102324.63;;;8.14;66.02
75668;BME280;64266;48.798;44.756;2022-10-15T04:20:21;102408.50;;;8.70;66.38
75668;BME280;64266;48.798;44.756;2022-10-15T04:22:48;102394.44;;;8.61;65.31
75668;BME280;64266;48.798;44.756;2022-10-15T04:25:14;102373.13;;;8.55;65.79
75668;BME280;64266;48.798;44.756;2022-10-15T04:27:41;102415.75;;;8.92;64.89
75668;BME280;64266;48.798;44.756;2022-10-15T04:30:11;102317.09;;;8.35;64.57
75668;BME280;64266;48.798;44.756;2022-10-15T04:32:42;102379.72;;;8.83;65.10
75668;BME280;64266;48.798;44.756;2022-10-15T04:35:09;102427.19;;;9.09;64.92
75668;BME280;64266;48.798;44.756;2022-10-15T04:37:49;102425.34;;;9.17;65.82
75668;BME280;64266;48.798;44.756;2022-10-15T04:40:16;102365.19;;;8.87;66.33
75668;BME280;64266;48.798;44.756;2022-10-15T04:42:43;102431.78;;;9.31;66.04
75668;BME280;64266;48.798;44.756;2022-10-15T04:45:09;102442.69;;;9.36;66.05
75668;BME280;64266;48.798;44.756;2022-10-15T04:47:36;102424.16;;;9.36;66.52
75668;BME280;64266;48.798;44.756;2022-10-15T04:50:07;102419.34;;;9.40;66.57
75668;BME280;64266;48.798;44.756;2022-10-15T04:52:59;102439.84;;;9.62;66.95
75668;BME280;64266;48.798;44.756;2022-10-15T04:55:28;102408.09;;;9.46;67.05
75668;BME280;64266;48.798;44.756;2022-10-15T04:57:58;102448.78;;;9.69;67.25
75668;BME280;64266;48.798;44.756;2022-10-15T05:00:28;102445.44;;;9.75;67.84
75668;BME280;64266;48.798;44.756;2022-10-15T05:04:09;102456.50;;;9.87;67.90
75668;BME280;64266;48.798;44.756;2022-10-15T05:06:38;102428.56;;;9.68;67.96
75668;BME280;64266;48.798;44.756;2022-10-15T05:09:15;102442.75;;;9.83;67.49
75668;BME280;64266;48.798;44.756;2022-10-15T05:11:47;102455.56;;;10.10;67.31
75668;BME280;64266;48.798;44.756;2022-10-15T05:14:13;102450.56;;;10.23;66.45
75668;BME280;64266;48.798;44.756;2022-10-15T05:16:41;102410.94;;;10.22;65.96
75668;BME280;64266;48.798;44.756;2022-10-15T05:19:09;102452.13;;;10.86;64.80
75668;BME280;64266;48.798;44.756;2022-10-15T05:21:37;102448.06;;;11.35;63.96
75668;BME280;64266;48.798;44.756;2022-10-15T05:24:10;102434.84;;;11.79;62.01
75668;BME280;64266;48.798;44.756;2022-10-15T05:26:59;102442.66;;;12.31;59.57
75668;BME280;64266;48.798;44.756;2022-10-15T05:29:28;102412.63;;;12.59;59.72
75668;BME280;64266;48.798;44.756;2022-10-15T05:31:54;102460.19;;;13.25;58.58
75668;BME280;64266;48.798;44.756;2022-10-15T05:34:25;102481.34;;;13.61;56.88
75668;BME280;64266;48.798;44.756;2022-10-15T05:37:09;102470.50;;;14.03;55.98
75668;BME280;64266;48.798;44.756;2022-10-15T05:39:38;102438.53;;;14.10;55.41
75668;BME280;64266;48.798;44.756;2022-10-15T05:42:04;102432.13;;;14.45;54.56
75668;BME280;64266;48.798;44.756;2022-10-15T05:44:37;102459.50;;;14.93;52.54
75668;BME280;64266;48.798;44.756;2022-10-15T05:47:03;102460.53;;;15.05;51.27
75668;BME280;64266;48.798;44.756;2022-10-15T05:49:29;102453.78;;;15.16;48.54
75668;BME280;64266;48.798;44.756;2022-10-15T05:52:08;102465.47;;;15.35;47.05
75668;BME280;64266;48.798;44.756;2022-10-15T05:54:52;102428.88;;;15.09;47.01
75668;BME280;64266;48.798;44.756;2022-10-15T05:57:18;102453.13;;;15.34;46.22
75668;BME280;64266;48.798;44.756;2022-10-15T05:59:43;102472.03;;;15.45;45.92
75668;BME280;64266;48.798;44.756;2022-10-15T06:02:12;102438.75;;;15.28;45.80
75668;BME280;64266;48.798;44.756;2022-10-15T06:04:41;102474.31;;;15.42;45.78
75668;BME280;64266;48.798;44.756;2022-10-15T06:07:07;102440.59;;;15.21;46.44
75668;BME280;64266;48.798;44.756;2022-10-15T06:09:33;102455.41;;;15.17;46.17
75668;BME280;64266;48.798;44.756;2022-10-15T06:11:59;102460.94;;;15.02;47.64
75668;BME280;64266;48.798;44.756;2022-10-15T06:14:26;102472.88;;;14.93;47.75
75668;BME280;64266;48.798;44.756;2022-10-15T06:16:52;102423.94;;;14.60;47.38
75668;BME280;64266;48.798;44.756;2022-10-15T06:19:19;102448.94;;;14.52;46.65
75668;BME280;64266;48.798;44.756;2022-10-15T06:21:45;102438.91;;;14.48;47.63
75668;BME280;64266;48.798;44.756;2022-10-15T06:24:13;102432.00;;;14.19;47.12
75668;BME280;64266;48.798;44.756;2022-10-15T06:26:39;102462.41;;;14.31;48.67
75668;BME280;64266;48.798;44.756;2022-10-15T06:29:05;102427.22;;;14.01;48.79
75668;BME280;64266;48.798;44.756;2022-10-15T06:31:30;102414.69;;;13.95;48.79
75668;BME280;64266;48.798;44.756;2022-10-15T06:37:53;102343.50;;;13.48;48.33
75668;BME280;64266;48.798;44.756;2022-10-15T06:40:20;102487.25;;;14.32;48.50
75668;BME280;64266;48.798;44.756;2022-10-15T06:42:47;102463.00;;;14.20;47.44
75668;BME280;64266;48.798;44.756;2022-10-15T06:45:16;102497.50;;;14.28;48.01
75668;BME280;64266;48.798;44.756;2022-10-15T06:47:42;102495.47;;;14.30;48.39
75668;BME280;64266;48.798;44.756;2022-10-15T06:50:08;102476.75;;;14.17;47.74
75668;BME280;64266;48.798;44.756;2022-10-15T06:52:38;102497.28;;;14.23;48.00
75668;BME280;64266;48.798;44.756;2022-10-15T06:55:08;102477.22;;;14.34;48.28
75668;BME280;64266;48.798;44.756;2022-10-15T06:57:34;102497.19;;;14.44;48.39
75668;BME280;64266;48.798;44.756;2022-10-15T07:00:03;102496.81;;;14.47;47.45
75668;BME280;64266;48.798;44.756;2022-10-15T07:02:29;102502.53;;;14.44;47.83
75668;BME280;64266;48.798;44.756;2022-10-15T07:05:06;102494.94;;;14.41;48.13
75668;BME280;64266;48.798;44.756;2022-10-15T07:07:32;102488.97;;;14.46;49.00
75668;BME280;64266;48.798;44.756;2022-10-15T07:09:57;102482.19;;;14.43;48.88
75668;BME280;64266;48.798;44.756;2022-10-15T07:12:32;102463.22;;;14.25;47.12
75668;BME280;64266;48.798;44.756;2022-10-15T07:14:58;102497.50;;;14.28;46.93
75668;BME280;64266;48.798;44.756;2022-10-15T07:17:27;102476.09;;;14.08;47.56
75668;BME280;64266;48.798;44.756;2022-10-15T07:19:59;102505.09;;;14.25;47.10
75668;BME280;64266;48.798;44.756;2022-10-15T07:22:29;102471.56;;;14.02;47.29
75668;BME280;64266;48.798;44.756;2022-10-15T07:24:55;102516.81;;;14.24;46.72
75668;BME280;64266;48.798;44.756;2022-10-15T07:27:22;102495.16;;;14.12;45.26
75668;BME280;64266;48.798;44.756;2022-10-15T07:29:50;102512.69;;;14.21;46.13
75668;BME280;64266;48.798;44.756;2022-10-15T07:32:16;102493.50;;;14.04;45.65
75668;BME280;64266;48.798;44.756;2022-10-15T07:34:42;102470.88;;;13.94;46.64
75668;BME280;64266;48.798;44.756;2022-10-15T07:37:08;102461.75;;;13.75;45.53
75668;BME280;64266;48.798;44.756;2022-10-15T07:39:34;102505.09;;;13.84;46.14
75668;BME280;64266;48.798;44.756;2022-10-15T07:42:00;102519.97;;;13.99;46.14
75668;BME280;64266;48.798;44.756;2022-10-15T07:44:26;102506.97;;;13.90;43.57
75668;BME280;64266;48.798;44.756;2022-10-15T07:46:52;102481.63;;;13.73;44.81
75668;BME280;64266;48.798;44.756;2022-10-15T07:49:18;102521.38;;;13.95;44.42
75668;BME280;64266;48.798;44.756;2022-10-15T07:51:44;102503.34;;;14.04;44.48
75668;BME280;64266;48.798;44.756;2022-10-15T07:54:10;102486.25;;;13.92;43.97
75668;BME280;64266;48.798;44.756;2022-10-15T07:56:36;102490.75;;;13.91;44.14
75668;BME280;64266;48.798;44.756;2022-10-15T07:59:02;102505.84;;;14.12;44.99
75668;BME280;64266;48.798;44.756;2022-10-15T08:01:27;102536.72;;;14.28;45.48
75668;BME280;64266;48.798;44.756;2022-10-15T08:03:54;102524.91;;;14.43;46.27
75668;BME280;64266;48.798;44.756;2022-10-15T08:06:19;102525.75;;;14.50;45.54
75668;BME280;64266;48.798;44.756;2022-10-15T08:08:45;102525.81;;;14.63;45.44
75668;BME280;64266;48.798;44.756;2022-10-15T08:11:14;102502.97;;;14.48;44.32
75668;BME280;64266;48.798;44.756;2022-10-15T08:13:41;102507.28;;;14.55;44.55
75668;BME280;64266;48.798;44.756;2022-10-15T08:16:09;102526.50;;;14.85;44.60
75668;BME280;64266;48.798;44.756;2022-10-15T08:18:35;102518.22;;;14.74;44.55
75668;BME280;64266;48.798;44.756;2022-10-15T08:21:03;102539.38;;;14.69;44.15
75668;BME280;64266;48.798;44.756;2022-10-15T08:23:31;102484.66;;;14.38;44.24
75668;BME280;64266;48.798;44.756;2022-10-15T08:25:58;102532.16;;;14.56;44.23
75668;BME280;64266;48.798;44.756;2022-10-15T08:28:29;102490.38;;;14.35;44.08
75668;BME280;64266;48.798;44.756;2022-10-15T08:30:59;102523.78;;;14.72;43.68
75668;BME280;64266;48.798;44.756;2022-10-15T08:33:27;102513.06;;;14.65;44.02
75668;BME280;64266;48.798;44.756;2022-10-15T08:35:53;102497.50;;;14.76;44.17
75668;BME280;64266;48.798;44.756;2022-10-15T08:38:20;102460.16;;;14.28;44.35
75668;BME280;64266;48.798;44.756;2022-10-15T08:40:53;102520.63;;;14.55;44.89
75668;BME280;64266;48.798;44.756;2022-10-15T08:43:32;102529.28;;;14.57;45.80
75668;BME280;64266;48.798;44.756;2022-10-15T08:46:04;102529.03;;;14.52;45.54
75668;BME280;64266;48.798;44.756;2022-10-15T08:48:38;102534.94;;;14.35;46.45
75668;BME280;64266;48.798;44.756;2022-10-15T08:51:13;102529.06;;;14.11;47.17
75668;BME280;64266;48.798;44.756;2022-10-15T08:53:50;102526.78;;;14.08;47.52
75668;BME280;64266;48.798;44.756;2022-10-15T08:56:21;102503.13;;;13.99;46.60
75668;BME280;64266;48.798;44.756;2022-10-15T09:02:02;102535.69;;;14.29;45.90
75668;BME280;64266;48.798;44.756;2022-10-15T09:07:19;102533.09;;;14.35;43.06
75668;BME280;64266;48.798;44.756;2022-10-15T09:09:50;102526.97;;;14.41;43.01
75668;BME280;64266;48.798;44.756;2022-10-15T09:14:44;102513.81;;;14.33;43.70
75668;BME280;64266;48.798;44.756;2022-10-15T09:17:21;102528.50;;;14.63;43.66
75668;BME280;64266;48.798;44.756;2022-10-15T09:19:54;102534.06;;;14.75;43.51
75668;BME280;64266;48.798;44.756;2022-10-15T09:22:25;102542.50;;;14.79;43.76
75668;BME280;64266;48.798;44.756;2022-10-15T09:24:52;102540.38;;;14.68;43.88
75668;BME280;64266;48.798;44.756;2022-10-15T09:30:12;102523.28;;;14.42;43.81
75668;BME280;64266;48.798;44.756;2022-10-15T09:35:38;102544.25;;;14.58;43.96
75668;BME280;64266;48.798;44.756;2022-10-15T09:38:22;102550.03;;;14.62;44.30
75668;BME280;64266;48.798;44.756;2022-10-15T09:43:45;102532.00;;;14.64;43.61
75668;BME280;64266;48.798;44.756;2022-10-15T09:46:13;102531.78;;;14.65;44.07
75668;BME280;64266;48.798;44.756;2022-10-15T09:48:45;102536.53;;;14.83;44.18
75668;BME280;64266;48.798;44.756;2022-10-15T09:51:28;102510.88;;;14.82;44.35
75668;BME280;64266;48.798;44.756;2022-10-15T09:56:56;102518.09;;;14.95;44.16
75668;BME280;64266;48.798;44.756;2022-10-15T09:59:23;102522.56;;;14.75;44.25
75668;BME280;64266;48.798;44.756;2022-10-15T10:01:58;102534.50;;;14.79;44.14
75668;BME280;64266;48.798;44.756;2022-10-15T10:04:29;102539.44;;;14.82;44.74
75668;BME280;64266;48.798;44.756;2022-10-15T10:06:59;102532.59;;;14.66;43.83
75668;BME280;64266;48.798;44.756;2022-10-15T10:09:30;102542.41;;;14.52;43.40
75668;BME280;64266;48.798;44.756;2022-10-15T10:12:05;102458.78;;;13.98;44.13
75668;BME280;64266;48.798;44.756;2022-10-15T10:17:17;102536.22;;;14.52;43.57
75668;BME280;64266;48.798;44.756;2022-10-15T10:20:11;102521.00;;;14.39;43.79
75668;BME280;64266;48.798;44.756;2022-10-15T10:25:41;102532.81;;;14.78;42.89
75668;BME280;64266;48.798;44.756;2022-10-15T10:33:26;102529.38;;;14.97;43.48
75668;BME280;64266;48.798;44.756;2022-10-15T10:35:52;102532.47;;;15.00;43.99
75668;BME280;64266;48.798;44.756;2022-10-15T10:38:20;102516.63;;;14.86;44.46
75668;BME280;64266;48.798;44.756;2022-10-15T10:40:50;102534.94;;;15.02;44.05
75668;BME280;64266;48.798;44.756;2022-10-15T10:43:25;102504.50;;;14.90;44.42
75668;BME280;64266;48.798;44.756;2022-10-15T10:46:00;102530.41;;;15.02;44.72
75668;BME280;64266;48.798;44.756;2022-10-15T10:51:19;102524.22;;;14.76;45.63
75668;BME280;64266;48.798;44.756;2022-10-15T10:53:53;102526.22;;;14.74;45.47
75668;BME280;64266;48.798;44.756;2022-10-15T10:59:00;102534.78;;;14.49;46.21
75668;BME280;64266;48.798;44.756;2022-10-15T11:02:07;102446.44;;;13.84;45.86
75668;BME280;64266;48.798;44.756;2022-10-15T11:05:04;102509.94;;;14.08;45.62
75668;BME280;64266;48.798;44.756;2022-10-15T11:07:50;102535.91;;;14.27;45.61
75668;BME280;64266;48.798;44.756;2022-10-15T11:10:27;102528.59;;;14.36;45.04
75668;BME280;64266;48.798;44.756;2022-10-15T11:16:03;102528.31;;;14.24;44.24
75668;BME280;64266;48.798;44.756;2022-10-15T11:27:47;102543.84;;;14.48;41.56
75668;BME280;64266;48.798;44.756;2022-10-15T11:44:21;102549.34;;;14.47;42.29
75668;BME280;64266;48.798;44.756;2022-10-15T11:55:45;102552.94;;;14.26;40.48
75668;BME280;64266;48.798;44.756;2022-10-15T11:58:29;102552.06;;;14.19;40.15
75668;BME280;64266;48.798;44.756;2022-10-15T12:01:23;102546.69;;;14.12;40.66
75668;BME280;64266;48.798;44.756;2022-10-15T12:03:55;102546.66;;;14.06;40.20
75668;BME280;64266;48.798;44.756;2022-10-15T12:06:26;102535.66;;;13.88;40.92
75668;BME280;64266;48.798;44.756;2022-10-15T12:08:54;102560.38;;;14.03;40.66
75668;BME280;64266;48.798;44.756;2022-10-15T12:19:52;102561.88;;;13.78;39.65
75668;BME280;64266;48.798;44.756;2022-10-15T12:24:59;102569.16;;;13.69;39.92
75668;BME280;64266;48.798;44.756;2022-10-15T12:32:58;102562.78;;;13.64;40.50
75668;BME280;64266;48.798;44.756;2022-10-15T12:35:36;102563.81;;;13.63;39.98
75668;BME280;64266;48.798;44.756;2022-10-15T12:38:28;102554.25;;;13.47;40.45
75668;BME280;64266;48.798;44.756;2022-10-15T12:41:09;102526.59;;;13.27;40.03
75668;BME280;64266;48.798;44.756;2022-10-15T12:43:43;102556.84;;;13.40;40.76
75668;BME280;64266;48.798;44.756;2022-10-15T12:46:13;102525.53;;;13.21;41.42
75668;BME280;64266;48.798;44.756;2022-10-15T12:48:42;102568.34;;;13.41;40.07
75668;BME280;64266;48.798;44.756;2022-10-15T12:57:00;102575.25;;;13.35;40.50
75668;BME280;64266;48.798;44.756;2022-10-15T13:02:37;102574.00;;;13.31;40.37
75668;BME280;64266;48.798;44.756;2022-10-15T13:05:08;102532.47;;;13.01;40.59
75668;BME280;64266;48.798;44.756;2022-10-15T13:07:38;102573.72;;;13.26;41.00
75668;BME280;64266;48.798;44.756;2022-10-15T13:10:18;102560.91;;;13.15;40.14
75668;BME280;64266;48.798;44.756;2022-10-15T13:12:52;102587.16;;;13.18;40.33
75668;BME280;64266;48.798;44.756;2022-10-15T13:15:22;102564.13;;;13.11;40.45
75668;BME280;64266;48.798;44.756;2022-10-15T13:17:50;102576.81;;;13.09;40.20
75668;BME280;64266;48.798;44.756;2022-10-15T13:20:39;102546.13;;;12.77;40.41
75668;BME280;64266;48.798;44.756;2022-10-15T13:23:17;102586.66;;;13.08;41.30
75668;BME280;64266;48.798;44.756;2022-10-15T13:25:44;102551.91;;;12.80;40.99
75668;BME280;64266;48.798;44.756;2022-10-15T13:28:30;102599.31;;;13.06;40.55
75668;BME280;64266;48.798;44.756;2022-10-15T13:31:24;102591.69;;;13.03;41.03
75668;BME280;64266;48.798;44.756;2022-10-15T13:33:58;102600.22;;;12.98;41.10
75668;BME280;64266;48.798;44.756;2022-10-15T13:36:31;102564.72;;;12.70;41.07
75668;BME280;64266;48.798;44.756;2022-10-15T13:39:02;102601.19;;;12.91;40.67
75668;BME280;64266;48.798;44.756;2022-10-15T13:41:38;102602.56;;;12.87;41.35
75668;BME280;64266;48.798;44.756;2022-10-15T13:44:22;102603.31;;;12.81;41.62
75668;BME280;64266;48.798;44.756;2022-10-15T13:46:48;102584.63;;;12.60;42.18
75668;BME280;64266;48.798;44.756;2022-10-15T13:49:17;102603.81;;;12.70;42.22
75668;BME280;64266;48.798;44.756;2022-10-15T13:51:47;102558.94;;;12.37;40.98
75668;BME280;64266;48.798;44.756;2022-10-15T13:54:16;102579.69;;;12.42;41.45
75668;BME280;64266;48.798;44.756;2022-10-15T13:57:04;102537.13;;;12.13;41.96
75668;BME280;64266;48.798;44.756;2022-10-15T13:59:30;102580.25;;;12.37;41.64
75668;BME280;64266;48.798;44.756;2022-10-15T14:01:59;102578.31;;;12.31;42.55
75668;BME280;64266;48.798;44.756;2022-10-15T14:04:28;102611.72;;;12.48;42.27
75668;BME280;64266;48.798;44.756;2022-10-15T14:07:20;102612.63;;;12.41;41.96
75668;BME280;64266;48.798;44.756;2022-10-15T14:09:48;102616.50;;;12.38;42.54
75668;BME280;64266;48.798;44.756;2022-10-15T14:12:14;102603.81;;;12.26;42.43
75668;BME280;64266;48.798;44.756;2022-10-15T14:14:43;102622.53;;;12.32;42.76
75668;BME280;64266;48.798;44.756;2022-10-15T14:17:12;102621.44;;;12.27;42.44
75668;BME280;64266;48.798;44.756;2022-10-15T14:19:50;102588.75;;;12.04;41.90
75668;BME280;64266;48.798;44.756;2022-10-15T14:22:22;102628.03;;;12.16;43.38
75668;BME280;64266;48.798;44.756;2022-10-15T14:24:52;102626.19;;;12.02;43.30
75668;BME280;64266;48.798;44.756;2022-10-15T14:27:26;102601.78;;;11.84;43.67
75668;BME280;64266;48.798;44.756;2022-10-15T14:29:59;102639.53;;;11.94;43.59
75668;BME280;64266;48.798;44.756;2022-10-15T14:32:46;102644.03;;;11.93;44.42
75668;BME280;64266;48.798;44.756;2022-10-15T14:35:32;102621.81;;;11.72;44.79
75668;BME280;64266;48.798;44.756;2022-10-15T14:38:03;102647.94;;;11.83;45.05
75668;BME280;64266;48.798;44.756;2022-10-15T14:40:29;102645.91;;;11.70;45.40
75668;BME280;64266;48.798;44.756;2022-10-15T14:43:17;102654.00;;;11.77;45.13
75668;BME280;64266;48.798;44.756;2022-10-15T14:48:19;102661.00;;;11.70;45.88
75668;BME280;64266;48.798;44.756;2022-10-15T14:50:47;102629.63;;;11.42;46.05
75668;BME280;64266;48.798;44.756;2022-10-15T14:53:20;102651.50;;;11.53;46.25
75668;BME280;64266;48.798;44.756;2022-10-15T14:55:51;102590.84;;;11.11;46.55
75668;BME280;64266;48.798;44.756;2022-10-15T14:58:22;102643.75;;;11.43;47.01
75668;BME280;64266;48.798;44.756;2022-10-15T15:01:00;102658.50;;;11.46;46.58